Time;durP1;ratioP1;P1;durP2;ratioP2;P2;SDS_P1;SDS_P2;PMS_P1;PMS_P2;Temp;Humidity;BMP_temperature;BMP_pressure;BME280_temperature;BME280_humidity;BME280_pressure;Samples;Min_cycle;Max_cycle;Signal;HPM_P1;HPM_P2
2021/06/17 00:00:36;;;;;;;7.28;4.45;;;;;;;20.90;68.74;98299.13;4852801;28;104187;-75
2021/06/17 00:03:05;;;;;;;6.72;4.35;;;;;;;20.91;68.19;98298.13;4862678;28;103293;-78
2021/06/17 00:05:35;;;;;;;5.45;4.10;;;;;;;20.95;68.10;98305.63;4849411;28;104216;-75
2021/06/17 00:08:05;;;;;;;6.75;4.35;;;;;;;20.93;68.18;98304.97;4856339;28;103898;-75
2021/06/17 00:10:35;;;;;;;5.93;4.22;;;;;;;20.85;68.60;98302.38;4855162;28;103824;-75
2021/06/17 00:13:07;;;;;;;8.00;4.60;;;;;;;20.87;69.04;98303.03;4866500;28;103163;-75
2021/06/17 00:15:37;;;;;;;4.88;4.38;;;;;;;20.80;69.14;98302.09;4860475;28;103133;-75
2021/06/17 00:18:06;;;;;;;4.22;3.83;;;;;;;20.71;69.81;98301.38;4830414;29;105580;-74
2021/06/17 00:20:35;;;;;;;5.18;4.43;;;;;;;20.70;69.72;98299.69;4850573;28;104256;-75
2021/06/17 00:23:05;;;;;;;5.75;3.97;;;;;;;20.78;69.84;98293.38;4862018;28;103237;-75
2021/06/17 00:25:33;;;;;;;4.78;4.35;;;;;;;20.80;69.30;98300.25;4849601;28;103442;-75
2021/06/17 00:28:02;;;;;;;5.38;4.80;;;;;;;20.70;70.39;98304.22;4850944;28;104117;-75
2021/06/17 00:30:31;;;;;;;4.55;4.13;;;;;;;20.38;71.23;98296.50;4848381;29;105242;-75
2021/06/17 00:33:00;;;;;;;6.70;4.97;;;;;;;20.42;71.33;98297.78;4864619;28;102936;-75
2021/06/17 00:35:29;;;;;;;4.43;4.03;;;;;;;20.55;70.80;98298.00;4859976;28;103405;-75
2021/06/17 00:38:00;;;;;;;5.22;4.45;;;;;;;20.57;71.13;98304.03;4864869;28;103366;-76
2021/06/17 00:40:31;;;;;;;4.88;4.38;;;;;;;20.32;71.91;98299.91;4848877;29;104054;-75
2021/06/17 00:42:59;;;;;;;5.68;4.80;;;;;;;20.33;71.55;98294.34;4848882;28;103068;-75
2021/06/17 00:45:30;;;;;;;7.07;5.18;;;;;;;20.26;72.02;98303.31;4857184;28;103383;-75
2021/06/17 00:47:59;;;;;;;6.47;5.10;;;;;;;20.19;71.70;98301.31;4849670;28;104270;-76
2021/06/17 00:50:29;;;;;;;5.55;4.75;;;;;;;20.12;71.77;98291.50;4855767;28;103783;-75
2021/06/17 00:52:57;;;;;;;9.55;5.40;;;;;;;20.17;71.41;98291.78;4849349;28;103169;-76
2021/06/17 00:55:25;;;;;;;7.95;5.25;;;;;;;20.02;71.99;98289.06;4866973;28;103008;-75
2021/06/17 00:57:55;;;;;;;9.32;4.53;;;;;;;19.99;72.02;98286.75;4862995;28;104919;-75
2021/06/17 01:00:23;;;;;;;6.50;4.70;;;;;;;20.10;71.01;98283.63;4866316;28;103702;-75
2021/06/17 01:02:51;;;;;;;5.75;4.55;;;;;;;20.19;70.56;98279.88;4860703;28;104981;-75
2021/06/17 01:05:21;;;;;;;5.93;4.93;;;;;;;20.15;70.59;98280.44;4865785;28;103056;-76
2021/06/17 01:07:58;;;;;;;5.28;4.88;;;;;;;20.27;69.73;98275.50;4865405;28;105009;-76
2021/06/17 01:10:31;;;;;;;4.82;4.28;;;;;;;20.28;69.60;98279.81;4866709;28;105296;-75
2021/06/17 01:13:10;;;;;;;7.57;4.40;;;;;;;20.27;69.37;98278.97;4841955;28;103364;-76
2021/06/17 01:16:05;;;;;;;5.43;4.20;;;;;;;20.21;70.11;98274.31;4861163;28;102977;-76
2021/06/17 01:18:33;;;;;;;4.97;4.47;;;;;;;20.18;69.89;98274.69;4866053;28;103895;-76
2021/06/17 01:21:09;;;;;;;4.70;4.10;;;;;;;20.17;70.30;98268.50;4865001;28;104837;-76
2021/06/17 01:24:07;;;;;;;6.82;4.22;;;;;;;20.09;69.86;98265.91;4847786;28;102874;-75
2021/06/17 01:27:07;;;;;;;4.32;3.72;;;;;;;20.13;70.01;98269.88;4857858;28;103473;-74
2021/06/17 01:29:37;;;;;;;5.93;4.53;;;;;;;20.22;70.24;98266.09;4861744;28;104393;-75
2021/06/17 01:32:06;;;;;;;6.10;4.18;;;;;;;20.25;70.28;98270.28;4866145;28;105500;-75
2021/06/17 01:34:35;;;;;;;4.82;3.92;;;;;;;20.36;69.25;98261.81;4864304;28;103175;-75
2021/06/17 01:37:08;;;;;;;5.18;4.03;;;;;;;20.32;69.61;98251.63;4848254;28;103117;-75
2021/06/17 01:39:39;;;;;;;4.70;4.30;;;;;;;20.05;71.21;98261.06;4842753;29;103766;-75
2021/06/17 01:42:09;;;;;;;3.75;3.35;;;;;;;19.89;70.69;98254.00;4858097;28;103649;-75
2021/06/17 01:44:39;;;;;;;4.90;3.80;;;;;;;19.97;71.49;98243.19;4854545;28;102998;-75
2021/06/17 01:47:08;;;;;;;5.47;4.65;;;;;;;19.90;71.78;98239.56;4847628;29;103224;-75
2021/06/17 01:49:37;;;;;;;6.97;5.18;;;;;;;19.55;73.13;98246.38;4847474;29;104196;-76
2021/06/17 01:52:07;;;;;;;6.32;5.25;;;;;;;19.28;74.12;98232.63;4848568;29;104850;-75
2021/06/17 01:54:40;;;;;;;5.05;4.55;;;;;;;19.49;73.83;98235.53;4862723;28;102966;-75
2021/06/17 01:57:10;;;;;;;5.35;4.85;;;;;;;19.57;74.15;98243.50;4867703;28;103152;-75
2021/06/17 01:59:42;;;;;;;4.43;4.00;;;;;;;19.71;72.40;98240.06;4866958;28;103694;-75
2021/06/17 02:02:12;;;;;;;4.30;3.90;;;;;;;19.87;71.78;98239.94;4864168;28;105362;-75
2021/06/17 02:04:41;;;;;;;5.90;5.30;;;;;;;19.56;73.27;98247.22;4867182;28;102915;-75
2021/06/17 02:07:12;;;;;;;6.28;5.15;;;;;;;19.21;75.67;98251.25;4867843;28;103063;-75
2021/06/17 02:09:40;;;;;;;7.50;5.50;;;;;;;19.25;74.61;98239.19;4852981;28;103729;-75
2021/06/17 02:12:10;;;;;;;5.43;4.60;;;;;;;19.41;74.06;98238.25;4866780;28;103692;-75
2021/06/17 02:14:40;;;;;;;7.90;5.38;;;;;;;19.27;74.60;98236.31;4855885;28;104360;-75
2021/06/17 02:17:09;;;;;;;4.28;3.97;;;;;;;19.48;72.79;98236.56;4848089;29;103341;-75
2021/06/17 02:19:37;;;;;;;4.03;3.72;;;;;;;19.63;71.57;98227.56;4858671;28;103953;-75
2021/06/17 02:22:08;;;;;;;4.30;3.90;;;;;;;19.77;71.37;98236.66;4847720;29;103721;-75
2021/06/17 02:24:39;;;;;;;4.60;4.20;;;;;;;19.57;73.61;98238.16;4846045;28;103038;-75
2021/06/17 02:27:12;;;;;;;7.95;4.88;;;;;;;19.16;76.28;98239.38;4861677;28;102744;-75
2021/06/17 02:29:45;;;;;;;5.75;5.25;;;;;;;18.84;78.56;98243.88;4870392;28;103923;-75
2021/06/17 02:32:16;;;;;;;7.00;5.78;;;;;;;18.88;78.27;98247.06;4865573;28;104929;-75
2021/06/17 02:34:46;;;;;;;6.25;5.00;;;;;;;18.91;77.63;98252.91;4853499;28;102957;-75
2021/06/17 02:37:16;;;;;;;5.53;4.55;;;;;;;19.04;76.49;98258.53;4861847;28;102934;-75
2021/06/17 02:39:45;;;;;;;5.70;5.07;;;;;;;19.15;76.12;98259.13;4847192;29;106154;-75
2021/06/17 02:42:16;;;;;;;5.63;4.95;;;;;;;19.19;75.31;98260.47;4858659;28;103735;-75
2021/06/17 02:44:48;;;;;;;7.68;5.97;;;;;;;19.33;74.44;98268.59;4851122;28;103168;-75
2021/06/17 02:47:17;;;;;;;6.10;5.50;;;;;;;19.26;74.83;98275.66;4835482;28;103154;-85
2021/06/17 02:49:45;;;;;;;5.18;4.68;;;;;;;19.39;73.72;98273.28;4865541;28;104369;-73
2021/06/17 02:52:13;;;;;;;5.40;4.93;;;;;;;19.41;73.67;98268.56;4866842;28;103100;-74
2021/06/17 02:54:41;;;;;;;7.43;6.13;;;;;;;19.16;76.36;98266.16;4856302;28;102917;-74
2021/06/17 02:57:24;;;;;;;7.28;6.15;;;;;;;18.82;78.38;98267.31;4858582;28;103092;-74
2021/06/17 03:00:05;;;;;;;8.98;6.00;;;;;;;18.79;78.09;98269.50;4863433;28;105029;-73
2021/06/17 03:02:41;;;;;;;9.52;6.13;;;;;;;18.85;77.29;98275.00;4860306;28;104749;-73
2021/06/17 03:05:16;;;;;;;7.82;5.88;;;;;;;19.06;76.09;98277.91;4866887;28;103006;-74
2021/06/17 03:07:48;;;;;;;6.95;6.05;;;;;;;18.99;76.54;98274.28;4864383;28;102914;-77
2021/06/17 03:10:17;;;;;;;6.10;5.45;;;;;;;19.03;75.58;98277.44;4834314;29;106638;-76
2021/06/17 03:12:46;;;;;;;6.60;5.53;;;;;;;19.07;75.90;98274.25;4868691;28;104142;-77
2021/06/17 03:15:16;;;;;;;7.03;6.32;;;;;;;18.75;77.80;98277.03;4850374;28;103002;-77
2021/06/17 03:17:48;;;;;;;6.25;5.75;;;;;;;18.96;76.14;98277.31;4848213;29;102883;-79
2021/06/17 03:20:18;;;;;;;7.80;5.95;;;;;;;18.96;76.47;98279.13;4847920;29;103559;-77
2021/06/17 03:22:51;;;;;;;6.03;5.43;;;;;;;19.06;75.84;98287.78;4848561;29;104735;-75
2021/06/17 03:25:26;;;;;;;4.90;4.50;;;;;;;19.15;74.74;98285.91;4851982;28;103006;-76
2021/06/17 03:27:56;;;;;;;7.10;5.95;;;;;;;19.11;76.50;98286.25;4861378;28;104799;-75
2021/06/17 03:30:28;;;;;;;7.60;6.25;;;;;;;18.84;78.19;98293.91;4867109;28;104425;-75
2021/06/17 03:32:59;;;;;;;8.27;7.38;;;;;;;18.42;80.46;98289.63;4867681;28;104921;-75
2021/06/17 03:35:28;;;;;;;6.15;5.40;;;;;;;18.40;79.88;98301.50;4866478;28;102966;-74
2021/06/17 03:37:57;;;;;;;6.97;5.97;;;;;;;18.31;81.13;98302.50;4859859;28;103100;-74
2021/06/17 03:40:27;;;;;;;6.50;5.88;;;;;;;18.22;81.70;98315.03;4868146;28;105245;-72
2021/06/17 03:42:56;;;;;;;7.50;6.32;;;;;;;18.49;79.86;98311.22;4869404;28;103684;-71
2021/06/17 03:45:26;;;;;;;6.90;6.28;;;;;;;18.57;79.75;98323.72;4869577;28;102934;-71
2021/06/17 03:47:55;;;;;;;5.35;4.85;;;;;;;18.56;79.74;98322.91;4866041;28;102902;-71
2021/06/17 03:50:25;;;;;;;7.03;5.65;;;;;;;18.75;77.88;98317.16;4857126;28;103305;-72
2021/06/17 03:52:56;;;;;;;6.82;6.10;;;;;;;18.74;79.21;98323.53;4866228;28;105019;-75
2021/06/17 03:55:25;;;;;;;5.30;4.82;;;;;;;18.64;79.56;98314.84;4872458;28;103075;-77
2021/06/17 03:57:57;;;;;;;6.85;6.10;;;;;;;18.44;81.61;98313.53;4864327;28;104123;-78
2021/06/17 04:00:30;;;;;;;6.80;6.20;;;;;;;18.30;82.69;98316.91;4863697;28;103996;-76
2021/06/17 04:03:00;;;;;;;6.72;5.90;;;;;;;18.44;82.32;98318.91;4854586;28;103684;-76
2021/06/17 04:05:28;;;;;;;6.95;6.25;;;;;;;18.44;82.31;98313.53;4861437;28;103034;-75
2021/06/17 04:07:59;;;;;;;11.90;7.15;;;;;;;18.43;82.59;98323.41;4869653;28;102985;-76
2021/06/17 04:10:29;;;;;;;9.32;7.28;;;;;;;18.60;81.76;98318.06;4867218;28;104543;-75
2021/06/17 04:12:59;;;;;;;7.93;6.60;;;;;;;18.78;80.71;98314.16;4856084;28;104204;-77
2021/06/17 04:15:30;;;;;;;6.78;5.82;;;;;;;18.95;79.54;98328.31;4848873;28;103049;-77
2021/06/17 04:18:01;;;;;;;5.07;4.35;;;;;;;19.12;78.13;98329.94;4868540;28;103056;-76
2021/06/17 04:20:32;;;;;;;5.65;5.15;;;;;;;19.33;77.24;98329.34;4859976;28;103949;-75
2021/06/17 04:23:02;;;;;;;9.50;6.07;;;;;;;19.49;76.54;98327.44;4866325;28;105154;-76
2021/06/17 04:25:31;;;;;;;8.93;7.22;;;;;;;19.55;76.99;98331.28;4853541;28;103389;-77
2021/06/17 04:28:01;;;;;;;5.57;5.07;;;;;;;19.65;75.56;98326.50;4852183;28;103906;-77
2021/06/17 04:30:33;;;;;;;4.97;4.45;;;;;;;19.78;76.11;98337.50;4858844;28;104353;-76
2021/06/17 04:33:03;;;;;;;4.60;4.13;;;;;;;19.87;77.42;98343.66;4859874;28;110002;-78
2021/06/17 04:35:33;;;;;;;5.00;4.50;;;;;;;19.93;75.62;98349.09;4862684;28;103139;-77
2021/06/17 04:38:02;;;;;;;5.85;5.20;;;;;;;19.99;75.37;98343.03;4851173;28;103131;-76
2021/06/17 04:40:32;;;;;;;4.53;4.13;;;;;;;20.03;74.48;98346.22;4868236;28;104929;-78
2021/06/17 04:43:00;;;;;;;5.28;4.78;;;;;;;20.15;74.65;98345.59;4853737;28;105006;-75
2021/06/17 04:45:32;;;;;;;4.65;4.25;;;;;;;20.24;74.89;98344.56;4863781;28;103161;-76
2021/06/17 04:48:07;;;;;;;6.00;4.50;;;;;;;20.33;75.24;98347.16;4856001;28;103199;-81
2021/06/17 04:50:36;;;;;;;7.63;6.20;;;;;;;20.26;75.16;98348.91;4838788;28;105983;-76
2021/06/17 04:53:15;;;;;;;7.00;6.05;;;;;;;20.30;75.05;98343.00;4861626;28;106631;-73
2021/06/17 04:55:52;;;;;;;5.63;4.88;;;;;;;20.44;74.46;98344.06;4865199;28;103247;-79
2021/06/17 04:58:21;;;;;;;6.30;5.68;;;;;;;20.48;73.50;98340.00;4856572;28;103234;-79
2021/06/17 05:00:51;;;;;;;8.60;7.25;;;;;;;20.57;73.76;98344.28;4863811;28;104123;-82
2021/06/17 05:03:20;;;;;;;7.43;6.10;;;;;;;20.68;73.29;98341.16;4858791;28;104774;-80
2021/06/17 05:05:50;;;;;;;7.30;6.60;;;;;;;20.68;74.07;98339.31;4850969;28;103546;-76
2021/06/17 05:11:04;;;;;;;9.00;7.63;;;;;;;20.81;72.96;98346.72;4856145;28;103955;-80
2021/06/17 05:13:33;;;;;;;10.73;7.65;;;;;;;20.87;72.98;98343.31;4847391;28;104611;-81
2021/06/17 05:16:03;;;;;;;6.78;5.80;;;;;;;20.98;71.75;98337.47;4856513;28;105185;-76
2021/06/17 05:18:31;;;;;;;9.10;5.97;;;;;;;21.05;71.40;98346.44;4858657;28;103233;-81
2021/06/17 05:21:00;;;;;;;7.32;5.50;;;;;;;21.09;70.65;98339.72;4857117;28;106212;-80
2021/06/17 05:23:28;;;;;;;5.93;4.95;;;;;;;21.25;69.65;98349.44;4860059;28;104125;-77
2021/06/17 05:25:59;;;;;;;6.70;4.93;;;;;;;21.31;68.67;98346.00;4850224;28;103196;-81
2021/06/17 05:28:29;;;;;;;6.55;5.43;;;;;;;21.38;68.27;98347.78;4854524;28;104744;-77
2021/06/17 05:31:00;;;;;;;6.80;5.38;;;;;;;21.41;68.60;98353.78;4857600;28;104378;-79
2021/06/17 05:33:31;;;;;;;4.82;4.43;;;;;;;21.62;67.59;98348.44;4859916;28;103681;-80
2021/06/17 05:35:59;;;;;;;5.53;4.82;;;;;;;21.64;65.99;98349.13;4852471;28;103285;-81
2021/06/17 05:38:29;;;;;;;6.88;5.03;;;;;;;21.73;65.65;98346.09;4835594;28;104686;-75
2021/06/17 05:40:57;;;;;;;6.03;5.07;;;;;;;21.91;65.47;98356.47;4844866;28;105036;-76
2021/06/17 05:43:25;;;;;;;5.63;3.63;;;;;;;22.00;64.39;98349.97;4846915;29;103904;-76
2021/06/17 05:45:53;;;;;;;3.95;3.55;;;;;;;22.13;64.67;98360.84;4862050;28;103161;-77
2021/06/17 05:48:21;;;;;;;5.45;4.57;;;;;;;22.24;64.02;98356.81;4863033;28;103408;-77
2021/06/17 05:50:50;;;;;;;6.88;4.45;;;;;;;22.34;63.14;98355.44;4865193;28;104841;-77
2021/06/17 05:53:19;;;;;;;6.85;4.38;;;;;;;22.46;64.94;98350.38;4845018;29;107643;-77
2021/06/17 05:55:47;;;;;;;4.07;3.33;;;;;;;22.64;63.83;98347.25;4862865;28;103265;-75
2021/06/17 05:58:15;;;;;;;4.40;3.92;;;;;;;22.78;64.01;98351.69;4859817;28;103660;-75
2021/06/17 06:00:43;;;;;;;6.63;4.28;;;;;;;22.79;63.93;98350.69;4861779;28;104715;-77
2021/06/17 06:03:11;;;;;;;9.48;3.88;;;;;;;23.00;62.91;98350.59;4862077;28;103214;-82
2021/06/17 06:05:39;;;;;;;3.72;3.42;;;;;;;23.16;62.37;98352.16;4866901;28;102956;-72
2021/06/17 06:08:11;;;;;;;4.07;2.97;;;;;;;23.31;62.06;98345.59;4867446;28;103369;-72
2021/06/17 06:10:40;;;;;;;5.90;4.03;;;;;;;23.30;60.52;98349.31;4857544;28;104539;-78
2021/06/17 06:13:08;;;;;;;5.57;4.47;;;;;;;23.28;60.71;98355.94;4863413;28;103936;-72
2021/06/17 06:15:37;;;;;;;4.97;3.45;;;;;;;23.41;60.67;98356.88;4865588;28;102971;-72
2021/06/17 06:18:07;;;;;;;4.20;3.53;;;;;;;23.63;60.98;98350.34;4864572;28;103201;-75
2021/06/17 06:20:36;;;;;;;6.05;4.63;;;;;;;23.55;59.87;98345.13;4863578;28;104654;-72
2021/06/17 06:23:05;;;;;;;5.07;4.00;;;;;;;23.73;59.36;98354.53;4860029;28;104937;-76
2021/06/17 06:25:36;;;;;;;4.72;4.05;;;;;;;23.85;58.81;98361.00;4862216;28;103283;-74
2021/06/17 06:28:05;;;;;;;5.80;4.53;;;;;;;23.75;58.48;98357.88;4845188;29;103530;-74
2021/06/17 06:30:33;;;;;;;9.13;4.88;;;;;;;23.82;58.69;98356.00;4861355;28;104886;-74
2021/06/17 06:33:01;;;;;;;6.18;3.53;;;;;;;24.08;58.48;98353.38;4866433;28;103724;-74
2021/06/17 06:35:29;;;;;;;6.63;4.07;;;;;;;24.22;57.83;98344.31;4865516;28;103095;-73
2021/06/17 06:37:57;;;;;;;4.72;3.47;;;;;;;24.28;57.81;98348.84;4862112;28;103692;-73
2021/06/17 06:40:27;;;;;;;6.38;4.45;;;;;;;24.28;57.29;98348.06;4847486;29;103386;-72
2021/06/17 06:42:57;;;;;;;8.13;4.53;;;;;;;24.43;57.01;98357.59;4863345;28;103829;-73
2021/06/17 06:45:26;;;;;;;4.60;3.50;;;;;;;24.62;57.26;98345.97;4865247;28;103063;-76
2021/06/17 06:47:54;;;;;;;4.78;3.45;;;;;;;24.78;56.28;98348.28;4861515;28;103045;-81
2021/06/17 06:50:22;;;;;;;3.33;3.03;;;;;;;25.06;56.48;98355.31;4851544;28;104607;-74
2021/06/17 06:52:51;;;;;;;8.93;3.05;;;;;;;25.10;55.99;98348.44;4853469;28;103676;-73
2021/06/17 06:55:19;;;;;;;4.90;3.33;;;;;;;25.15;55.65;98360.28;4861186;28;103335;-73
2021/06/17 06:57:48;;;;;;;6.93;3.88;;;;;;;25.05;55.22;98364.47;4853813;28;103172;-74
2021/06/17 07:00:19;;;;;;;3.47;3.17;;;;;;;25.28;55.66;98367.53;4856820;28;103992;-72
2021/06/17 07:02:48;;;;;;;6.57;3.40;;;;;;;25.34;54.85;98369.41;4859432;28;103777;-73
2021/06/17 07:05:17;;;;;;;9.60;4.40;;;;;;;25.43;53.74;98370.84;4864007;28;103310;-72
2021/06/17 07:07:45;;;;;;;6.53;3.55;;;;;;;25.65;53.63;98374.09;4862028;28;103256;-77
2021/06/17 07:10:14;;;;;;;5.18;4.07;;;;;;;25.65;54.16;98380.34;4853790;28;104719;-71
2021/06/17 07:12:43;;;;;;;9.18;4.30;;;;;;;25.79;53.58;98376.53;4868710;28;104253;-75
2021/06/17 07:15:13;;;;;;;5.82;3.30;;;;;;;26.11;53.66;98376.56;4862222;28;103798;-74
2021/06/17 07:17:43;;;;;;;3.55;3.25;;;;;;;26.35;52.88;98365.00;4870110;28;103887;-72
2021/06/17 07:20:11;;;;;;;10.60;4.60;;;;;;;26.12;52.31;98372.81;4865535;28;104466;-73
2021/06/17 07:22:40;;;;;;;5.53;4.05;;;;;;;26.29;52.63;98372.13;4865828;28;104871;-71
2021/06/17 07:25:09;;;;;;;6.22;4.40;;;;;;;26.37;51.42;98373.72;4849335;28;102974;-75
2021/06/17 07:27:37;;;;;;;6.55;4.45;;;;;;;26.54;51.67;98364.03;4854722;28;103172;-72
2021/06/17 07:30:09;;;;;;;5.95;4.25;;;;;;;26.89;50.92;98364.41;4865533;28;104900;-73
2021/06/17 07:32:37;;;;;;;4.20;3.30;;;;;;;27.26;50.97;98367.97;4867336;28;103650;-72
2021/06/17 07:35:08;;;;;;;5.45;3.88;;;;;;;27.50;50.00;98369.81;4866341;28;103050;-73
2021/06/17 07:37:37;;;;;;;4.43;3.50;;;;;;;27.77;50.38;98371.16;4866029;28;103054;-71
2021/06/17 07:40:06;;;;;;;6.82;3.78;;;;;;;27.76;50.23;98372.22;4858040;28;105533;-72
2021/06/17 07:42:35;;;;;;;5.68;3.20;;;;;;;28.17;49.54;98361.47;4852334;28;105489;-72
2021/06/17 07:45:03;;;;;;;6.88;3.72;;;;;;;28.48;48.81;98363.06;4877744;28;103084;-74
2021/06/17 07:47:31;;;;;;;4.15;3.53;;;;;;;28.94;48.08;98356.88;4864138;28;102923;-73
2021/06/17 07:50:00;;;;;;;5.53;4.30;;;;;;;28.84;47.35;98355.81;4851399;28;107147;-75
2021/06/17 07:52:29;;;;;;;8.55;4.15;;;;;;;29.23;46.14;98355.97;4876345;28;104433;-71
2021/06/17 07:54:58;;;;;;;5.60;3.88;;;;;;;29.73;45.96;98355.38;4862348;28;103344;-71
2021/06/17 07:57:26;;;;;;;10.25;4.63;;;;;;;29.20;47.23;98358.31;4865422;28;103625;-71
2021/06/17 07:59:54;;;;;;;4.35;3.63;;;;;;;29.74;46.66;98343.44;4859336;28;104445;-76
2021/06/17 08:02:22;;;;;;;4.60;3.40;;;;;;;30.33;45.31;98342.16;4864815;28;103666;-72
2021/06/17 08:04:50;;;;;;;10.65;4.05;;;;;;;29.31;45.98;98347.44;4857033;28;103140;-73
2021/06/17 08:07:19;;;;;;;6.63;4.03;;;;;;;30.24;45.30;98347.16;4873493;28;103212;-71
2021/06/17 08:09:48;;;;;;;6.57;3.95;;;;;;;30.93;44.12;98343.19;4865644;28;103260;-73
2021/06/17 08:12:16;;;;;;;8.07;4.22;;;;;;;31.16;44.08;98339.44;4859595;28;104955;-73
2021/06/17 08:14:45;;;;;;;4.25;3.80;;;;;;;31.69;43.88;98343.47;4865282;28;103449;-73
2021/06/17 08:17:13;;;;;;;10.10;3.88;;;;;;;31.66;42.38;98349.44;4867056;28;103224;-72
2021/06/17 08:19:41;;;;;;;7.40;4.43;;;;;;;31.01;43.16;98344.69;4854345;28;104959;-71
2021/06/17 08:22:11;;;;;;;6.57;3.97;;;;;;;31.84;43.80;98360.03;4849460;29;103729;-72
2021/06/17 08:24:43;;;;;;;5.80;3.70;;;;;;;31.97;41.52;98346.00;4848086;28;103223;-73
2021/06/17 08:27:13;;;;;;;6.97;3.72;;;;;;;32.80;41.55;98341.91;4857089;28;102918;-73
2021/06/17 08:29:41;;;;;;;7.18;3.88;;;;;;;32.89;39.80;98340.34;4865698;28;104063;-72
2021/06/17 08:32:09;;;;;;;5.18;3.67;;;;;;;33.21;39.94;98338.38;4867066;28;104656;-72
2021/06/17 08:34:38;;;;;;;5.25;2.97;;;;;;;33.26;40.66;98335.69;4865771;28;103134;-72
2021/06/17 08:37:06;;;;;;;7.43;2.92;;;;;;;33.89;39.63;98336.53;4848803;29;103178;-72
2021/06/17 08:39:35;;;;;;;6.43;2.78;;;;;;;33.97;40.10;98330.50;4838976;28;104646;-74
2021/06/17 08:42:04;;;;;;;8.43;4.22;;;;;;;34.27;39.38;98334.19;4853154;28;106078;-74
2021/06/17 08:44:34;;;;;;;6.70;3.63;;;;;;;34.63;38.57;98332.34;4844401;28;103002;-73
2021/06/17 08:47:03;;;;;;;5.95;3.25;;;;;;;34.77;37.78;98327.94;4853993;28;103130;-78
2021/06/17 08:49:31;;;;;;;6.80;3.60;;;;;;;34.49;38.65;98328.47;4855327;28;105481;-73
2021/06/17 08:52:00;;;;;;;4.40;3.50;;;;;;;35.50;37.89;98325.63;4851540;28;103665;-75
2021/06/17 08:54:30;;;;;;;5.80;3.08;;;;;;;34.60;39.14;98324.66;4849027;28;103794;-71
2021/06/17 08:56:58;;;;;;;6.70;3.30;;;;;;;35.09;37.26;98330.38;4852337;28;103074;-72
2021/06/17 08:59:31;;;;;;;6.32;3.03;;;;;;;35.38;36.19;98336.09;4871093;28;105184;-76
2021/06/17 09:02:01;;;;;;;6.53;3.47;;;;;;;35.53;37.34;98337.97;4878302;28;105235;-73
2021/06/17 09:04:30;;;;;;;4.53;2.75;;;;;;;35.64;36.03;98343.19;4866933;28;103066;-72
2021/06/17 09:07:00;;;;;;;6.75;3.42;;;;;;;35.68;36.68;98341.50;4870389;28;103141;-73
2021/06/17 09:09:33;;;;;;;3.40;3.10;;;;;;;34.95;37.11;98346.56;4867966;28;104637;-73
2021/06/17 09:12:02;;;;;;;3.70;3.40;;;;;;;35.20;36.58;98344.94;4857160;28;105650;-74
2021/06/17 09:14:31;;;;;;;7.68;3.30;;;;;;;34.56;37.50;98348.19;4867824;28;102999;-73
2021/06/17 09:17:04;;;;;;;4.18;3.60;;;;;;;34.62;36.55;98349.88;4861883;28;103405;-73
2021/06/17 09:19:38;;;;;;;5.05;3.28;;;;;;;34.76;37.48;98358.38;4861753;28;103323;-72
2021/06/17 09:22:07;;;;;;;8.10;3.70;;;;;;;33.54;37.77;98362.66;4867010;28;111685;-73
2021/06/17 09:24:39;;;;;;;8.15;3.58;;;;;;;35.11;36.96;98371.28;4861097;28;104427;-73
2021/06/17 09:27:27;;;;;;;7.80;3.22;;;;;;;34.10;37.55;98371.16;4857261;28;103189;-72
2021/06/17 09:29:57;;;;;;;2.78;2.58;;;;;;;34.57;36.44;98381.94;4871033;28;105441;-73
2021/06/17 09:32:29;;;;;;;8.70;3.95;;;;;;;33.81;37.35;98385.28;4849721;28;105708;-72
2021/06/17 09:34:58;;;;;;;8.05;3.78;;;;;;;32.98;39.27;98374.31;4854876;28;103185;-74
2021/06/17 09:37:36;;;;;;;4.80;3.75;;;;;;;33.89;38.74;98372.13;4867269;28;103192;-73
2021/06/17 09:40:25;;;;;;;5.03;4.13;;;;;;;34.55;39.37;98374.00;4852486;28;104340;-71
2021/06/17 09:43:12;;;;;;;5.00;3.45;;;;;;;34.43;38.13;98367.09;4848335;28;103633;-72
2021/06/17 09:45:41;;;;;;;4.82;3.63;;;;;;;33.59;38.98;98376.41;4848352;29;102954;-72
2021/06/17 09:48:33;;;;;;;3.75;3.45;;;;;;;33.68;37.71;98376.72;4880069;28;103402;-72
2021/06/17 09:51:23;;;;;;;5.47;3.08;;;;;;;33.61;38.42;98374.22;4852945;28;105091;-74
2021/06/17 09:53:52;;;;;;;6.18;3.47;;;;;;;34.13;38.46;98378.84;4860524;28;105383;-73
2021/06/17 09:56:30;;;;;;;3.58;2.97;;;;;;;34.07;38.24;98380.72;4859308;28;103591;-76
2021/06/17 09:58:59;;;;;;;5.55;3.63;;;;;;;32.89;39.40;98386.84;4862396;28;103359;-74
2021/06/17 10:01:34;;;;;;;4.57;3.20;;;;;;;33.02;39.23;98389.13;4848100;28;103974;-73
2021/06/17 10:04:06;;;;;;;4.55;3.70;;;;;;;33.05;39.03;98392.16;4847158;28;104910;-73
2021/06/17 10:06:36;;;;;;;5.32;3.33;;;;;;;33.24;39.05;98382.47;4858082;28;103028;-73
2021/06/17 10:09:06;;;;;;;4.55;3.47;;;;;;;33.25;38.79;98383.28;4863778;28;103377;-74
2021/06/17 10:11:34;;;;;;;4.95;4.32;;;;;;;32.84;38.99;98378.59;4860368;28;104576;-73
2021/06/17 10:14:04;;;;;;;4.70;4.15;;;;;;;32.82;38.50;98381.56;4849702;28;104218;-73
2021/06/17 10:16:33;;;;;;;4.90;3.40;;;;;;;33.85;38.66;98382.84;4859728;28;103010;-71
2021/06/17 10:19:02;;;;;;;3.40;3.10;;;;;;;34.63;37.83;98381.72;4887355;28;103135;-70
2021/06/17 10:21:32;;;;;;;6.88;4.13;;;;;;;33.45;38.59;98385.34;4875075;28;104174;-72
2021/06/17 10:24:01;;;;;;;5.35;3.15;;;;;;;34.42;38.14;98385.47;4848143;28;103219;-69
2021/06/17 10:26:40;;;;;;;4.05;3.10;;;;;;;34.90;39.27;98379.50;4857230;28;103382;-69
2021/06/17 10:29:22;;;;;;;4.95;3.90;;;;;;;35.01;37.67;98377.56;4859525;28;103010;-79
2021/06/17 10:31:51;;;;;;;5.25;3.47;;;;;;;35.02;36.09;98368.25;4849796;28;105014;-82
2021/06/17 10:34:46;;;;;;;5.28;4.15;;;;;;;35.69;34.99;98369.78;4873256;28;103793;-75
2021/06/17 10:37:19;;;;;;;3.97;3.60;;;;;;;35.89;35.99;98361.47;4846342;29;103056;-74
2021/06/17 10:39:50;;;;;;;7.18;4.38;;;;;;;34.11;37.49;98362.66;4852969;28;103220;-73
2021/06/17 10:42:39;;;;;;;4.30;3.90;;;;;;;34.01;36.71;98357.13;4862273;28;104185;-74
2021/06/17 10:45:11;;;;;;;4.75;3.55;;;;;;;33.47;37.86;98364.81;4866871;28;103644;-72
2021/06/17 10:48:08;;;;;;;8.32;3.90;;;;;;;34.30;36.70;98360.25;4865289;28;103174;-73
2021/06/17 10:50:43;;;;;;;7.07;3.75;;;;;;;34.46;35.13;98352.84;4849122;28;103180;-73
2021/06/17 10:53:44;;;;;;;3.67;3.47;;;;;;;34.69;35.53;98352.34;4855698;28;103898;-75
2021/06/17 10:56:17;;;;;;;4.57;3.13;;;;;;;34.80;33.53;98348.50;4859026;28;105064;-77
2021/06/17 10:58:54;;;;;;;5.65;4.07;;;;;;;35.13;34.06;98347.13;4850240;28;103116;-75
2021/06/17 11:01:31;;;;;;;6.25;3.78;;;;;;;34.84;34.14;98344.09;4851064;28;103273;-75
2021/06/17 11:04:04;;;;;;;5.28;4.03;;;;;;;34.86;35.28;98353.75;4834905;28;105531;-74
2021/06/17 11:07:10;;;;;;;3.80;3.50;;;;;;;36.13;35.17;98354.22;4853122;28;104227;-75
2021/06/17 11:09:45;;;;;;;5.20;4.35;;;;;;;34.51;35.31;98348.19;4841997;28;102991;-84
2021/06/17 11:12:48;;;;;;;6.68;3.70;;;;;;;34.90;34.92;98349.31;4850293;28;103473;-79
2021/06/17 11:15:38;;;;;;;7.18;4.13;;;;;;;34.88;37.38;98345.22;4830004;28;106928;-75
2021/06/17 11:18:06;;;;;;;6.65;3.97;;;;;;;35.02;37.55;98338.06;4870132;28;104399;-78
2021/06/17 11:20:37;;;;;;;6.18;4.60;;;;;;;34.63;37.59;98337.81;4847158;28;103274;-81
2021/06/17 11:23:05;;;;;;;6.70;4.63;;;;;;;34.80;37.38;98337.53;4840675;28;103065;-80
2021/06/17 11:25:39;;;;;;;5.72;4.65;;;;;;;34.20;37.94;98343.75;4852413;28;103671;-76
2021/06/17 11:28:09;;;;;;;3.60;3.30;;;;;;;35.57;36.61;98339.88;4860029;28;104345;-76
2021/06/17 11:31:03;;;;;;;8.93;3.92;;;;;;;35.54;36.83;98332.19;4852003;28;102666;-79
2021/06/17 11:33:47;;;;;;;4.75;4.28;;;;;;;35.43;36.63;98336.06;4857988;28;104937;-79
2021/06/17 11:36:17;;;;;;;4.38;3.83;;;;;;;35.14;38.15;98326.81;4853705;28;105156;-78
2021/06/17 11:38:48;;;;;;;6.30;3.63;;;;;;;36.09;36.07;98333.09;4849596;28;104377;-78
2021/06/17 11:41:39;;;;;;;5.18;3.78;;;;;;;36.40;35.22;98326.28;4857850;28;103096;-76
2021/06/17 11:44:09;;;;;;;4.82;4.10;;;;;;;35.29;35.15;98332.25;4862473;28;103176;-79
2021/06/17 11:46:39;;;;;;;6.20;3.78;;;;;;;35.78;35.20;98329.66;4852177;28;103898;-79